createdAt,value
2023-06-13T00:02:25.033Z,42.75
2023-06-13T00:04:53.183Z,42.73
2023-06-13T00:07:19.918Z,43.02
2023-06-13T00:09:46.787Z,43.26
2023-06-13T00:12:14.076Z,43.15
2023-06-13T00:14:40.846Z,43.34
2023-06-13T00:17:07.488Z,43.68
2023-06-13T00:19:34.112Z,43.74
2023-06-13T00:22:01.872Z,43.69
2023-06-13T00:24:28.657Z,44.12
2023-06-13T00:26:55.544Z,44.16
2023-06-13T00:29:22.174Z,43.98
2023-06-13T00:31:50.433Z,44.21
2023-06-13T00:34:17.509Z,44.33
2023-06-13T00:36:45.728Z,44.40
2023-06-13T00:39:12.887Z,44.91
2023-06-13T00:41:39.729Z,44.94
2023-06-13T00:44:07.222Z,45.02
2023-06-13T00:46:36.262Z,45.48
2023-06-13T00:49:05.249Z,45.62
2023-06-13T00:51:36.850Z,45.59
2023-06-13T00:54:08.075Z,45.84
2023-06-13T00:56:38.088Z,45.96
2023-06-13T00:59:05.759Z,45.87
2023-06-13T01:01:32.652Z,46.05
2023-06-13T01:04:01.111Z,46.13
2023-06-13T01:06:31.821Z,46.32
2023-06-13T01:09:01.516Z,46.13
2023-06-13T01:11:36.663Z,46.56
2023-06-13T01:14:41.665Z,46.69
2023-06-13T01:17:28.413Z,46.80
2023-06-13T01:20:00.020Z,47.01
2023-06-13T01:22:46.469Z,46.95
2023-06-13T01:25:38.527Z,47.34
2023-06-13T01:28:07.734Z,47.33
2023-06-13T01:30:36.309Z,47.50
2023-06-13T01:33:04.578Z,47.86
2023-06-13T01:35:32.570Z,47.72
2023-06-13T01:37:59.293Z,47.75
2023-06-13T01:40:25.937Z,48.05
2023-06-13T01:42:52.581Z,48.40
2023-06-13T01:45:19.438Z,48.19
2023-06-13T01:47:52.190Z,48.53
2023-06-13T01:50:25.958Z,48.69
2023-06-13T01:53:03.478Z,48.57
2023-06-13T01:55:54.402Z,48.34
2023-06-13T01:58:27.438Z,48.78
2023-06-13T02:00:58.716Z,48.70
2023-06-13T02:03:25.684Z,48.83
2023-06-13T02:05:52.719Z,49.05
2023-06-13T02:08:19.438Z,49.15
2023-06-13T02:10:46.646Z,49.34
2023-06-13T02:13:13.470Z,49.04
2023-06-13T02:15:40.188Z,49.33
2023-06-13T02:18:08.310Z,49.55
2023-06-13T02:20:35.401Z,49.37
2023-06-13T02:23:05.360Z,49.61
2023-06-13T02:25:32.506Z,49.54
2023-06-13T02:27:59.283Z,49.55
2023-06-13T02:30:26.409Z,49.77
2023-06-13T02:32:54.216Z,49.68
2023-06-13T02:35:24.655Z,49.77
2023-06-13T02:37:54.452Z,50.14
2023-06-13T02:40:22.140Z,49.86
2023-06-13T02:42:50.196Z,50.48
2023-06-13T02:45:17.527Z,50.37
2023-06-13T02:47:44.928Z,50.58
2023-06-13T02:50:13.482Z,50.68
2023-06-13T02:52:40.589Z,50.94
2023-06-13T02:55:09.049Z,50.84
2023-06-13T02:57:38.026Z,51.00
2023-06-13T03:00:08.551Z,50.89
2023-06-13T03:02:38.093Z,51.33
2023-06-13T03:05:17.183Z,51.18
2023-06-13T03:07:47.511Z,51.39
2023-06-13T03:10:15.660Z,51.45
2023-06-13T03:12:42.693Z,51.55
2023-06-13T03:15:09.743Z,51.58
2023-06-13T03:17:36.942Z,51.32
2023-06-13T03:20:06.669Z,51.70
2023-06-13T03:22:33.702Z,51.78
2023-06-13T03:25:06.200Z,52.04
2023-06-13T03:27:33.783Z,52.32
2023-06-13T03:30:01.202Z,52.25
2023-06-13T03:32:27.977Z,52.52
2023-06-13T03:34:55.481Z,52.37
2023-06-13T03:37:22.448Z,52.25
2023-06-13T03:39:49.151Z,52.20
2023-06-13T03:42:16.064Z,52.57
2023-06-13T03:44:48.029Z,52.33
2023-06-13T03:47:16.071Z,52.09
2023-06-13T03:49:43.889Z,52.08
2023-06-13T03:52:12.395Z,52.08
2023-06-13T03:54:39.426Z,52.39
2023-06-13T03:57:07.945Z,52.47
2023-06-13T03:59:35.334Z,52.33
2023-06-13T04:02:02.041Z,52.18
2023-06-13T04:04:28.896Z,52.01
2023-06-13T04:06:56.786Z,52.17
2023-06-13T04:09:24.709Z,51.94
2023-06-13T04:11:51.734Z,51.66
2023-06-13T04:14:18.454Z,51.85
2023-06-13T04:16:45.214Z,51.59
2023-06-13T04:19:18.770Z,51.33
2023-06-13T04:21:47.339Z,51.07
2023-06-13T04:24:16.075Z,51.06
2023-06-13T04:26:43.003Z,50.63
2023-06-13T04:29:10.320Z,50.49
2023-06-13T04:31:40.034Z,50.23
2023-06-13T04:34:08.658Z,49.96
2023-06-13T04:36:37.070Z,49.81
2023-06-13T04:39:07.686Z,49.61
2023-06-13T04:41:35.944Z,49.33
2023-06-13T04:44:04.597Z,49.36
2023-06-13T04:46:31.798Z,49.09
2023-06-13T04:48:58.498Z,48.85
2023-06-13T04:51:27.189Z,48.60
2023-06-13T04:53:58.371Z,48.35
2023-06-13T04:56:29.410Z,48.11
2023-06-13T04:58:57.261Z,47.73
2023-06-13T05:01:28.208Z,47.49
2023-06-13T05:03:59.059Z,47.03
2023-06-13T05:06:28.530Z,46.92
2023-06-13T05:08:55.451Z,46.41
2023-06-13T05:11:23.458Z,46.20
2023-06-13T05:13:50.385Z,45.81
2023-06-13T05:16:18.523Z,45.67
2023-06-13T05:18:46.084Z,45.35
2023-06-13T05:21:18.156Z,45.06
2023-06-13T05:23:45.631Z,44.82
2023-06-13T05:26:13.286Z,44.60
2023-06-13T05:28:41.327Z,44.36
2023-06-13T05:31:08.378Z,44.03
2023-06-13T05:33:35.522Z,43.81
2023-06-13T05:36:02.438Z,43.59
2023-06-13T05:38:29.098Z,43.36
2023-06-13T05:40:55.952Z,43.28
2023-06-13T05:43:22.754Z,42.78
2023-06-13T05:45:49.735Z,42.69
2023-06-13T05:48:17.042Z,42.50
2023-06-13T05:50:43.782Z,42.34
2023-06-13T05:53:11.425Z,42.20
2023-06-13T05:55:38.397Z,42.21
2023-06-13T05:58:05.228Z,42.11
2023-06-13T06:00:34.069Z,41.87
2023-06-13T06:03:03.263Z,41.59
2023-06-13T06:05:30.390Z,41.46
2023-06-13T06:07:57.391Z,41.39
2023-06-13T06:10:24.201Z,40.95
2023-06-13T06:12:51.219Z,40.86
2023-06-13T06:15:17.922Z,40.71
2023-06-13T06:17:44.734Z,40.42
2023-06-13T06:20:12.012Z,40.29
2023-06-13T06:22:39.197Z,39.95
2023-06-13T06:25:07.021Z,40.07
2023-06-13T06:27:33.877Z,39.84
2023-06-13T06:30:00.675Z,39.73
2023-06-13T06:32:27.494Z,39.47
2023-06-13T06:34:55.942Z,39.12
2023-06-13T06:37:23.749Z,38.55
2023-06-13T06:39:50.699Z,38.63
2023-06-13T06:42:17.457Z,38.59
2023-06-13T06:44:45.539Z,38.52
2023-06-13T06:47:12.839Z,38.39
2023-06-13T06:49:39.922Z,37.97
2023-06-13T06:52:06.979Z,37.24
2023-06-13T06:54:35.367Z,37.23
2023-06-13T06:57:03.512Z,36.89
2023-06-13T06:59:31.128Z,36.79
2023-06-13T07:01:58.315Z,36.56
2023-06-13T07:04:26.218Z,36.48
2023-06-13T07:06:56.554Z,35.98
2023-06-13T07:09:23.332Z,35.73
2023-06-13T07:11:50.045Z,35.44
2023-06-13T07:14:17.529Z,35.29
2023-06-13T07:16:44.367Z,34.81
2023-06-13T07:19:11.404Z,34.57
2023-06-13T07:21:38.080Z,34.80
2023-06-13T07:24:08.087Z,34.08
2023-06-13T07:26:36.224Z,33.97
2023-06-13T07:29:03.405Z,33.89
2023-06-13T07:31:31.309Z,33.46
2023-06-13T07:33:58.179Z,32.96
2023-06-13T07:36:24.991Z,32.80
2023-06-13T07:38:52.370Z,32.97
2023-06-13T07:41:19.192Z,33.02
2023-06-13T07:43:46.072Z,33.14
2023-06-13T07:46:12.822Z,32.94
2023-06-13T07:48:39.577Z,32.71
2023-06-13T07:51:06.709Z,32.48
2023-06-13T07:53:33.573Z,32.37
2023-06-13T07:56:00.591Z,32.55
2023-06-13T07:58:27.246Z,32.33
2023-06-13T08:00:53.932Z,31.96
2023-06-13T08:03:23.141Z,32.31
2023-06-13T08:05:52.182Z,31.78
2023-06-13T08:08:18.861Z,31.72
2023-06-13T08:10:45.608Z,31.68
2023-06-13T08:13:12.450Z,31.48
2023-06-13T08:15:39.335Z,31.54
2023-06-13T08:18:06.393Z,31.04
2023-06-13T08:20:33.220Z,30.99
2023-06-13T08:23:01.007Z,30.64
2023-06-13T08:25:27.735Z,31.02
2023-06-13T08:27:54.644Z,30.92
2023-06-13T08:30:21.475Z,30.49
2023-06-13T08:32:49.421Z,30.23
2023-06-13T08:35:16.615Z,30.28
2023-06-13T08:37:43.610Z,30.44
2023-06-13T08:40:11.789Z,30.24
2023-06-13T08:42:39.595Z,30.26
2023-06-13T08:45:08.650Z,29.95
2023-06-13T08:47:39.079Z,29.81
2023-06-13T08:50:08.090Z,29.75
2023-06-13T08:52:42.602Z,29.78
2023-06-13T08:55:45.974Z,29.63
2023-06-13T08:58:04.172Z,29.27
2023-06-13T09:00:37.198Z,29.19
2023-06-13T09:03:07.796Z,29.01
2023-06-13T09:05:34.916Z,29.05
2023-06-13T09:08:27.956Z,29.01
2023-06-13T09:10:51.508Z,28.91
2023-06-13T09:13:18.751Z,28.65
2023-06-13T09:15:46.581Z,28.47
2023-06-13T09:18:14.094Z,28.48
2023-06-13T09:20:41.060Z,28.23
2023-06-13T09:23:08.754Z,27.87
2023-06-13T09:25:37.658Z,28.04
2023-06-13T09:28:29.757Z,28.16
2023-06-13T09:30:58.203Z,28.32
2023-06-13T09:33:25.724Z,28.31
2023-06-13T09:35:53.396Z,28.12
2023-06-13T09:38:24.823Z,27.78
2023-06-13T09:40:55.683Z,27.53
2023-06-13T09:43:23.867Z,27.07
2023-06-13T09:45:52.182Z,27.41
2023-06-13T09:48:19.331Z,27.55
2023-06-13T09:50:46.244Z,27.38
2023-06-13T09:53:13.265Z,27.13
2023-06-13T09:55:40.098Z,27.17
2023-06-13T09:58:22.567Z,27.08
2023-06-13T10:01:00.766Z,27.26
2023-06-13T10:03:31.365Z,26.75
2023-06-13T10:06:02.138Z,26.63
2023-06-13T10:08:29.180Z,26.48
2023-06-13T10:10:56.998Z,26.76
2023-06-13T10:13:27.127Z,26.68
2023-06-13T10:15:57.736Z,26.60
2023-06-13T10:18:32.232Z,26.13
2023-06-13T10:21:01.077Z,26.38
2023-06-13T10:23:30.174Z,26.57
2023-06-13T10:26:03.049Z,25.99
2023-06-13T10:28:51.853Z,25.67
2023-06-13T10:31:37.299Z,25.52
2023-06-13T10:34:10.617Z,25.41
2023-06-13T10:37:15.192Z,25.23
2023-06-13T10:39:59.690Z,25.45
2023-06-13T10:42:38.350Z,25.45
2023-06-13T10:45:16.914Z,25.21
2023-06-13T10:47:44.391Z,24.78
2023-06-13T10:50:16.251Z,25.10
2023-06-13T10:52:50.495Z,24.58
2023-06-13T10:55:28.533Z,24.01
2023-06-13T10:58:02.402Z,24.30
2023-06-13T11:00:32.171Z,23.88
2023-06-13T11:03:06.846Z,24.02
2023-06-13T11:05:49.347Z,23.90
2023-06-13T11:08:20.165Z,23.46
2023-06-13T11:10:49.665Z,23.25
2023-06-13T11:13:33.493Z,23.58
2023-06-13T11:16:18.868Z,23.59
2023-06-13T11:18:49.305Z,23.71
2023-06-13T11:21:16.224Z,23.48
2023-06-13T11:23:50.956Z,23.41
2023-06-13T11:26:21.432Z,23.22
2023-06-13T11:28:52.489Z,23.11
2023-06-13T11:31:20.543Z,22.76
2023-06-13T11:33:49.830Z,23.05
2023-06-13T11:36:19.730Z,22.83
2023-06-13T11:38:58.545Z,22.95
2023-06-13T11:41:26.127Z,23.10
2023-06-13T11:43:52.963Z,22.92
2023-06-13T11:46:20.487Z,22.67
2023-06-13T11:48:51.883Z,22.59
2023-06-13T11:51:19.924Z,22.25
2023-06-13T11:53:57.960Z,22.16
2023-06-13T11:56:26.441Z,22.47
2023-06-13T11:58:55.117Z,22.20
2023-06-13T12:01:27.784Z,22.32
2023-06-13T12:04:01.751Z,22.16
2023-06-13T12:06:28.746Z,21.71
2023-06-13T12:08:55.700Z,21.88
2023-06-13T12:11:26.359Z,22.11
2023-06-13T12:13:58.600Z,22.09
2023-06-13T12:16:27.963Z,21.46
2023-06-13T12:18:55.357Z,21.15
2023-06-13T12:21:30.455Z,21.35
2023-06-13T12:23:59.550Z,21.46
2023-06-13T12:26:29.789Z,21.30
2023-06-13T12:28:58.301Z,21.85
2023-06-13T12:31:59.960Z,22.02
2023-06-13T12:34:36.762Z,21.25
2023-06-13T12:37:06.186Z,20.51
2023-06-13T12:39:34.285Z,20.46
2023-06-13T12:42:11.856Z,20.60
2023-06-13T12:44:38.648Z,20.32
2023-06-13T12:47:07.239Z,20.43
2023-06-13T12:49:38.566Z,19.97
2023-06-13T12:52:15.615Z,20.42
2023-06-13T12:54:42.988Z,20.11
2023-06-13T12:57:11.489Z,20.06
2023-06-13T12:59:48.656Z,19.83
2023-06-13T13:02:18.732Z,20.20
2023-06-13T13:04:45.954Z,20.06
2023-06-13T13:07:14.282Z,20.42
2023-06-13T13:09:44.508Z,20.37
2023-06-13T13:12:15.103Z,19.61
2023-06-13T13:14:42.682Z,19.75
2023-06-13T13:17:09.503Z,19.62
2023-06-13T13:19:36.313Z,19.87
2023-06-13T13:22:03.529Z,20.13
2023-06-13T13:24:34.359Z,19.55
2023-06-13T13:27:02.970Z,19.58
2023-06-13T13:29:29.740Z,19.74
2023-06-13T13:31:59.336Z,19.55
2023-06-13T13:34:26.635Z,19.68
2023-06-13T13:36:54.990Z,19.18
2023-06-13T13:39:22.502Z,19.06
2023-06-13T13:41:49.410Z,18.96
2023-06-13T13:44:16.351Z,18.86
2023-06-13T13:46:43.277Z,19.26
2023-06-13T13:49:10.296Z,19.14
2023-06-13T13:51:37.422Z,19.49
2023-06-13T13:54:04.642Z,18.89
2023-06-13T13:56:31.398Z,19.27
2023-06-13T13:58:58.152Z,19.15
2023-06-13T14:01:25.079Z,18.85
2023-06-13T14:03:51.896Z,18.96
2023-06-13T14:06:18.756Z,18.83
2023-06-13T14:08:45.471Z,18.96
2023-06-13T14:11:12.183Z,19.13
2023-06-13T14:13:38.985Z,18.78
2023-06-13T14:16:06.184Z,18.75
2023-06-13T14:18:33.895Z,18.73
2023-06-13T14:21:01.382Z,18.35
2023-06-13T14:23:28.304Z,18.41
2023-06-13T14:25:55.065Z,18.61
2023-06-13T14:28:21.904Z,18.42
2023-06-13T14:30:48.720Z,18.46
2023-06-13T14:33:18.101Z,18.22
2023-06-13T14:35:45.285Z,18.00
2023-06-13T14:38:12.431Z,17.88
2023-06-13T14:40:39.231Z,18.03
2023-06-13T14:43:07.382Z,17.80
2023-06-13T14:45:34.129Z,17.80
2023-06-13T14:48:01.111Z,17.50
2023-06-13T14:50:27.945Z,17.77
2023-06-13T14:52:54.712Z,17.81
2023-06-13T14:55:22.227Z,17.59
2023-06-13T14:57:49.438Z,17.46
2023-06-13T15:00:16.903Z,17.49
2023-06-13T15:02:43.822Z,17.68
2023-06-13T15:05:10.673Z,17.63
2023-06-13T15:07:37.491Z,17.91
2023-06-13T15:10:05.352Z,17.79
2023-06-13T15:12:32.106Z,17.52
2023-06-13T15:14:58.830Z,17.46
2023-06-13T15:17:26.085Z,17.66
2023-06-13T15:19:53.102Z,17.68
2023-06-13T15:22:19.977Z,17.46
2023-06-13T15:24:46.733Z,17.43
2023-06-13T15:27:14.147Z,17.57
2023-06-13T15:29:40.916Z,17.44
2023-06-13T15:32:08.097Z,17.54
2023-06-13T15:34:36.328Z,17.40
2023-06-13T15:37:03.307Z,17.19
2023-06-13T15:39:30.081Z,17.22
2023-06-13T15:41:56.858Z,17.26
2023-06-13T15:44:24.045Z,16.93
2023-06-13T15:46:50.790Z,17.22
2023-06-13T15:49:17.534Z,16.89
2023-06-13T15:51:44.407Z,17.15
2023-06-13T15:54:11.177Z,16.96
2023-06-13T15:56:38.192Z,16.70
2023-06-13T15:59:05.143Z,16.81
2023-06-13T16:01:31.937Z,16.95
2023-06-13T16:03:58.842Z,16.64
2023-06-13T16:06:25.830Z,16.94
2023-06-13T16:08:52.498Z,16.78
2023-06-13T16:11:19.453Z,16.51
2023-06-13T16:13:46.342Z,16.80
2023-06-13T16:16:13.054Z,16.65
2023-06-13T16:18:40.269Z,16.50
2023-06-13T16:21:07.193Z,16.55
2023-06-13T16:23:34.280Z,16.58
2023-06-13T16:26:01.245Z,16.37
2023-06-13T16:28:27.910Z,16.34
2023-06-13T16:30:54.644Z,16.44
2023-06-13T16:33:21.423Z,16.16
2023-06-13T16:35:48.156Z,16.25
2023-06-13T16:38:15.638Z,16.24
2023-06-13T16:40:43.193Z,16.28
2023-06-13T16:43:10.494Z,16.05
2023-06-13T16:45:37.533Z,16.06
2023-06-13T16:48:04.743Z,16.03
2023-06-13T16:50:31.812Z,16.14
2023-06-13T16:52:59.569Z,15.95
2023-06-13T16:55:26.915Z,15.99
2023-06-13T16:57:54.778Z,15.96
2023-06-13T17:00:21.608Z,15.98
2023-06-13T17:02:48.542Z,15.81
2023-06-13T17:05:15.632Z,15.75
2023-06-13T17:07:43.262Z,15.99
2023-06-13T17:10:10.710Z,16.12
2023-06-13T17:12:42.345Z,15.90
2023-06-13T17:15:10.254Z,15.66
2023-06-13T17:17:37.086Z,15.68
2023-06-13T17:20:06.555Z,15.60
2023-06-13T17:22:33.495Z,15.32
2023-06-13T17:25:00.436Z,15.75
2023-06-13T17:27:28.259Z,15.77
2023-06-13T17:29:55.304Z,15.81
2023-06-13T17:32:24.986Z,15.68
2023-06-13T17:34:51.932Z,15.70
2023-06-13T17:37:19.288Z,15.58
2023-06-13T17:39:46.284Z,15.51
2023-06-13T17:42:13.076Z,15.32
2023-06-13T17:44:39.827Z,15.54
2023-06-13T17:47:07.708Z,15.08
2023-06-13T17:49:34.730Z,14.93
2023-06-13T17:52:02.134Z,14.83
2023-06-13T17:54:28.986Z,15.14
2023-06-13T17:56:56.470Z,14.74
2023-06-13T17:59:23.282Z,15.03
2023-06-13T18:01:50.479Z,14.94
2023-06-13T18:04:18.444Z,14.85
2023-06-13T18:06:45.369Z,15.05
2023-06-13T18:09:12.178Z,15.06
2023-06-13T18:11:38.938Z,14.92
2023-06-13T18:14:09.475Z,15.04
2023-06-13T18:16:37.344Z,15.19
2023-06-13T18:19:05.824Z,15.31
2023-06-13T18:21:34.353Z,15.75
2023-06-13T18:24:02.024Z,15.82
2023-06-13T18:26:29.183Z,15.93
2023-06-13T18:28:56.082Z,16.42
2023-06-13T18:31:23.418Z,16.97
2023-06-13T18:33:50.878Z,16.82
2023-06-13T18:36:17.636Z,17.44
2023-06-13T18:38:44.773Z,17.28
2023-06-13T18:41:11.878Z,17.74
2023-06-13T18:43:39.627Z,18.20
2023-06-13T18:46:06.611Z,18.49
2023-06-13T18:48:34.095Z,18.42
2023-06-13T18:51:01.132Z,18.31
2023-06-13T18:53:28.260Z,18.51
2023-06-13T18:55:55.683Z,18.69
2023-06-13T18:58:22.461Z,18.91
2023-06-13T19:00:49.746Z,18.99
2023-06-13T19:03:16.955Z,18.76
2023-06-13T19:05:43.847Z,19.06
2023-06-13T19:08:10.875Z,19.14
2023-06-13T19:10:37.962Z,19.50
2023-06-13T19:13:05.105Z,19.48
2023-06-13T19:15:33.682Z,19.90
2023-06-13T19:18:01.123Z,20.01
2023-06-13T19:20:28.356Z,20.10
2023-06-13T19:22:55.325Z,20.34
2023-06-13T19:25:26.490Z,20.72
2023-06-13T19:27:58.267Z,20.55
2023-06-13T19:30:30.659Z,20.73
2023-06-13T19:32:57.569Z,21.00
2023-06-13T19:35:25.212Z,21.50
2023-06-13T19:37:51.868Z,21.46
2023-06-13T19:40:20.148Z,21.65
2023-06-13T19:42:51.325Z,21.98
2023-06-13T19:45:20.688Z,22.35
2023-06-13T19:47:49.651Z,22.58
2023-06-13T19:50:18.675Z,23.02
2023-06-13T19:52:45.451Z,23.17
2023-06-13T19:55:14.179Z,23.33
2023-06-13T19:57:43.087Z,23.86
2023-06-13T20:00:13.808Z,23.92
2023-06-13T20:02:41.439Z,24.10
2023-06-13T20:05:10.609Z,24.27
2023-06-13T20:07:40.220Z,24.50
2023-06-13T20:10:08.551Z,24.85
2023-06-13T20:12:36.376Z,25.15
2023-06-13T20:15:06.127Z,25.24
2023-06-13T20:17:33.520Z,25.42
2023-06-13T20:20:06.936Z,25.86
2023-06-13T20:22:34.393Z,25.84
2023-06-13T20:25:01.872Z,26.18
2023-06-13T20:27:29.503Z,26.37
2023-06-13T20:29:56.346Z,26.79
2023-06-13T20:32:25.243Z,27.14
2023-06-13T20:34:52.204Z,27.18
2023-06-13T20:37:19.140Z,27.85
2023-06-13T20:39:46.073Z,27.87
2023-06-13T20:42:15.909Z,28.38
2023-06-13T20:44:48.736Z,28.44
2023-06-13T20:47:16.964Z,28.68
2023-06-13T20:49:43.696Z,28.66
2023-06-13T20:52:10.725Z,28.85
2023-06-13T20:54:37.781Z,29.13
2023-06-13T20:57:05.123Z,29.21
2023-06-13T20:59:31.929Z,29.39
2023-06-13T21:01:58.618Z,29.80
2023-06-13T21:04:26.198Z,29.72
2023-06-13T21:06:54.294Z,30.11
2023-06-13T21:09:21.767Z,30.22
2023-06-13T21:11:48.428Z,30.07
2023-06-13T21:14:16.064Z,30.18
2023-06-13T21:16:47.684Z,30.18
2023-06-13T21:19:19.317Z,30.52
2023-06-13T21:21:47.151Z,30.52
2023-06-13T21:24:13.877Z,30.32
2023-06-13T21:26:40.611Z,30.61
2023-06-13T21:29:07.305Z,30.77
2023-06-13T21:31:34.163Z,30.68
2023-06-13T21:34:00.880Z,30.74
2023-06-13T21:36:27.536Z,31.25
2023-06-13T21:38:54.291Z,31.34
2023-06-13T21:41:22.451Z,31.51
2023-06-13T21:43:49.176Z,31.59
2023-06-13T21:46:16.164Z,31.79
2023-06-13T21:48:43.550Z,32.06
2023-06-13T21:51:10.455Z,32.30
2023-06-13T21:53:37.125Z,32.46
2023-06-13T21:56:03.919Z,32.66
2023-06-13T21:58:30.618Z,32.83
2023-06-13T22:00:57.412Z,32.77
2023-06-13T22:03:24.256Z,32.95
2023-06-13T22:05:51.068Z,32.91
2023-06-13T22:08:18.697Z,33.06
2023-06-13T22:10:45.901Z,33.15
2023-06-13T22:13:12.669Z,33.31
2023-06-13T22:15:40.791Z,33.47
2023-06-13T22:18:07.657Z,33.50
2023-06-13T22:20:34.725Z,33.75
2023-06-13T22:23:01.647Z,33.82
2023-06-13T22:25:29.499Z,33.97
2023-06-13T22:27:57.291Z,34.06
2023-06-13T22:30:26.177Z,34.21
2023-06-13T22:32:54.399Z,34.25
2023-06-13T22:35:21.598Z,34.17
2023-06-13T22:37:49.263Z,34.48
2023-06-13T22:40:16.657Z,34.35
2023-06-13T22:42:43.750Z,34.47
2023-06-13T22:45:10.584Z,34.51
2023-06-13T22:47:40.832Z,34.62
2023-06-13T22:50:09.268Z,34.84
2023-06-13T22:52:36.476Z,34.86
2023-06-13T22:55:04.261Z,34.96
2023-06-13T22:57:31.872Z,35.02
2023-06-13T22:59:59.051Z,35.10
2023-06-13T23:02:25.980Z,35.19
2023-06-13T23:04:54.260Z,35.27
2023-06-13T23:07:22.003Z,35.57
2023-06-13T23:09:48.808Z,35.72
2023-06-13T23:12:15.663Z,35.80
2023-06-13T23:14:42.526Z,36.02
2023-06-13T23:17:09.193Z,36.01
2023-06-13T23:19:35.888Z,36.07
2023-06-13T23:22:02.791Z,36.55
2023-06-13T23:24:30.885Z,36.54
2023-06-13T23:26:58.327Z,36.65
2023-06-13T23:29:25.115Z,36.70
2023-06-13T23:31:51.981Z,36.97
2023-06-13T23:34:18.914Z,37.00
2023-06-13T23:36:45.931Z,37.21
2023-06-13T23:41:42.845Z,37.61
2023-06-13T23:44:09.764Z,37.83
2023-06-13T23:46:36.471Z,38.02
2023-06-13T23:49:03.277Z,38.20
2023-06-13T23:51:30.986Z,38.28
2023-06-13T23:53:57.697Z,38.30
2023-06-13T23:56:24.376Z,38.45
2023-06-13T23:58:51.037Z,38.63
